Time;durP1;ratioP1;P1;durP2;ratioP2;P2;SDS_P1;SDS_P2;PMS_P1;PMS_P2;Temp;Humidity;BMP_temperature;BMP_pressure;BME280_temperature;BME280_humidity;BME280_pressure;Samples;Min_cycle;Max_cycle;Signal;HPM_P1;HPM_P2
2022/11/15 00:04:13;;;;;;;23.67;12.05;;;7.00;99.90;;;;;;20640166;28;20058;-38
2022/11/15 00:14:14;;;;;;;23.73;12.00;;;7.00;99.90;;;;;;20661856;28;20048;-38
2022/11/15 00:24:15;;;;;;;22.25;13.20;;;7.00;99.90;;;;;;20623961;28;20042;-38
2022/11/15 00:34:16;;;;;;;28.05;15.07;;;7.00;99.90;;;;;;20641004;28;20058;-38
2022/11/15 00:44:17;;;;;;;30.30;15.20;;;7.10;99.90;;;;;;20643108;28;20045;-38
2022/11/15 00:54:18;;;;;;;33.42;16.17;;;7.10;99.90;;;;;;20653101;28;20048;-38
2022/11/15 01:04:19;;;;;;;29.33;16.20;;;7.20;99.90;;;;;;20632329;28;20034;-38
2022/11/15 01:14:20;;;;;;;30.52;16.60;;;7.30;99.90;;;;;;20630827;28;20141;-38
2022/11/15 01:24:21;;;;;;;32.35;15.48;;;7.40;99.90;;;;;;20626516;28;20035;-38
2022/11/15 01:34:22;;;;;;;30.55;16.85;;;7.50;99.90;;;;;;20645490;28;20132;-38
2022/11/15 01:44:45;;;;;;;34.90;17.50;;;7.60;99.90;;;;;;20541807;28;20049;-38
2022/11/15 01:54:50;;;;;;;28.52;15.75;;;7.80;99.90;;;;;;20549523;28;21655;-38
2022/11/15 02:04:51;;;;;;;35.60;17.90;;;7.90;99.90;;;;;;20559379;28;20080;-38
2022/11/15 02:14:54;;;;;;;33.33;16.27;;;7.90;99.90;;;;;;20543760;28;20130;-38
2022/11/15 02:25:25;;;;;;;36.70;18.48;;;8.00;99.90;;;;;;20543721;28;20131;-38
2022/11/15 02:35:52;;;;;;;25.63;15.95;;;8.20;99.90;;;;;;20553027;28;20121;-37
2022/11/15 02:46:01;;;;;;;31.40;16.33;;;8.30;99.90;;;;;;20633418;28;20244;-38
2022/11/15 02:56:03;;;;;;;36.72;16.77;;;8.50;99.90;;;;;;20611578;28;20154;-38
2022/11/15 03:06:35;;;;;;;29.13;16.33;;;8.70;99.90;;;;;;20605896;28;20133;-38
2022/11/15 03:16:47;;;;;;;32.45;17.20;;;8.90;99.90;;;;;;20628239;28;20133;-38
2022/11/15 03:26:52;;;;;;;39.50;15.52;;;9.00;99.90;;;;;;20621710;28;20903;-38
2022/11/15 03:36:53;;;;;;;24.83;13.93;;;9.20;99.90;;;;;;20620753;28;20050;-38
2022/11/15 03:47:02;;;;;;;21.90;12.13;;;9.20;99.90;;;;;;20604461;28;20549;-38
2022/11/15 03:57:03;;;;;;;19.02;13.00;;;9.30;99.90;;;;;;20621610;28;20220;-38
2022/11/15 04:07:04;;;;;;;24.35;12.27;;;9.40;99.90;;;;;;20629993;28;20125;-38
2022/11/15 04:17:05;;;;;;;20.25;11.52;;;9.60;99.90;;;;;;20633346;28;20134;-38
2022/11/15 04:27:06;;;;;;;29.92;11.90;;;9.70;99.90;;;;;;20619500;28;20034;-38
2022/11/15 04:37:13;;;;;;;23.80;10.38;;;9.80;99.90;;;;;;20630271;28;20166;-38
2022/11/15 04:47:14;;;;;;;17.53;10.40;;;9.90;99.90;;;;;;20631221;28;20487;-38
2022/11/15 04:57:15;;;;;;;20.48;10.55;;;10.00;99.90;;;;;;20629796;28;20457;-38
2022/11/15 05:07:16;;;;;;;17.08;8.68;;;10.10;99.90;;;;;;20622318;28;20068;-38
2022/11/15 05:17:17;;;;;;;14.93;8.20;;;10.10;99.90;;;;;;20627398;28;20046;-38
2022/11/15 05:27:18;;;;;;;13.13;6.93;;;10.30;99.90;;;;;;20618121;28;20038;-38
2022/11/15 05:37:19;;;;;;;14.65;6.80;;;10.30;99.90;;;;;;20616745;28;20066;-39
2022/11/15 05:47:24;;;;;;;9.52;6.53;;;10.40;99.90;;;;;;20620732;28;20124;-39
2022/11/15 05:57:25;;;;;;;13.45;7.80;;;10.40;99.90;;;;;;20633055;28;20129;-39
2022/11/15 06:07:26;;;;;;;13.25;6.30;;;10.50;99.90;;;;;;20614878;28;20565;-39
2022/11/15 06:17:27;;;;;;;12.43;6.47;;;10.50;99.90;;;;;;20616422;28;20132;-39
2022/11/15 06:27:28;;;;;;;13.52;7.53;;;10.50;99.90;;;;;;20621405;28;20069;-39
2022/11/15 06:37:29;;;;;;;15.90;5.85;;;10.50;99.90;;;;;;20611723;28;20075;-39
2022/11/15 06:47:30;;;;;;;9.60;6.00;;;10.60;99.90;;;;;;20609753;28;20397;-39
2022/11/15 06:57:32;;;;;;;11.27;6.75;;;10.60;99.90;;;;;;20584751;28;20494;-39
2022/11/15 07:07:33;;;;;;;9.80;5.50;;;10.60;99.90;;;;;;20595823;28;20125;-39
2022/11/15 07:17:34;;;;;;;10.80;6.38;;;10.60;99.90;;;;;;20602258;28;20116;-38
2022/11/15 07:27:35;;;;;;;11.93;5.88;;;10.40;99.90;;;;;;20599648;28;20034;-38
2022/11/15 07:37:36;;;;;;;10.50;5.30;;;10.40;99.90;;;;;;20610630;28;20101;-38
2022/11/15 07:47:37;;;;;;;9.10;5.93;;;10.40;99.90;;;;;;20605089;28;20532;-38
2022/11/15 07:57:38;;;;;;;12.15;6.13;;;10.40;99.90;;;;;;20584347;28;20513;-38
2022/11/15 08:07:40;;;;;;;10.65;5.40;;;10.50;99.90;;;;;;20618026;28;20344;-39
2022/11/15 08:17:41;;;;;;;8.45;5.10;;;10.60;99.90;;;;;;20600522;28;20109;-38
2022/11/15 08:27:42;;;;;;;6.88;4.28;;;10.60;99.90;;;;;;20625665;28;20046;-38
2022/11/15 08:37:43;;;;;;;9.32;4.15;;;10.70;99.90;;;;;;20610216;28;20298;-38
2022/11/15 08:47:44;;;;;;;6.78;3.78;;;10.70;99.90;;;;;;20594828;28;21868;-38
2022/11/15 08:57:45;;;;;;;6.38;3.10;;;10.90;99.90;;;;;;20637693;28;20047;-38
2022/11/15 09:07:46;;;;;;;4.65;2.17;;;11.10;99.90;;;;;;20629248;28;20125;-38
2022/11/15 09:17:47;;;;;;;6.00;2.55;;;11.30;99.90;;;;;;20608486;28;20098;-38
2022/11/15 09:27:48;;;;;;;4.55;2.40;;;11.40;99.90;;;;;;20618961;28;20509;-38
2022/11/15 09:37:49;;;;;;;8.27;2.90;;;11.50;99.90;;;;;;20633355;28;20050;-38
2022/11/15 09:48:22;;;;;;;4.30;2.05;;;11.70;99.90;;;;;;20611271;28;20049;-39
2022/11/15 09:58:26;;;;;;;5.43;2.03;;;11.70;99.90;;;;;;20626839;28;20522;-38
2022/11/15 10:08:46;;;;;;;3.92;1.95;;;11.80;99.90;;;;;;20579982;28;20035;-38
2022/11/15 10:19:04;;;;;;;3.50;1.67;;;11.90;99.90;;;;;;20628918;28;20474;-39
2022/11/15 10:29:05;;;;;;;;;;;12.00;99.90;;;;;;20622099;28;20475;-39
2022/11/15 10:39:11;;;;;;;3.10;1.55;;;12.10;99.90;;;;;;20628286;28;20003;-38
2022/11/15 10:49:28;;;;;;;3.17;1.40;;;12.50;99.90;;;;;;20630292;28;20096;-38
2022/11/15 10:59:33;;;;;;;2.47;1.37;;;12.90;99.90;;;;;;20625282;28;20154;-39
2022/11/15 11:09:42;;;;;;;2.42;1.15;;;13.30;99.90;;;;;;20628621;28;20053;-38
2022/11/15 11:20:01;;;;;;;1.20;0.65;;;13.80;99.90;;;;;;20629484;28;20717;-37
2022/11/15 11:30:21;;;;;;;2.17;1.02;;;13.80;99.90;;;;;;20637785;28;20698;-38
2022/11/15 11:40:36;;;;;;;0.82;0.38;;;13.80;99.90;;;;;;20640695;28;20038;-38
2022/11/15 11:50:38;;;;;;;1.42;0.88;;;13.70;99.90;;;;;;20642535;28;20046;-38
2022/11/15 12:00:46;;;;;;;0.93;0.35;;;13.80;99.90;;;;;;20640780;28;20145;-37
2022/11/15 12:10:54;;;;;;;1.08;0.38;;;13.60;99.90;;;;;;20627999;28;21934;-38
2022/11/15 12:20:58;;;;;;;;;;;13.70;99.90;;;;;;20636130;28;20302;-38
2022/11/15 12:31:10;;;;;;;1.35;0.47;;;13.50;99.90;;;;;;20642117;28;19978;-38
2022/11/15 12:41:15;;;;;;;1.30;0.50;;;13.80;99.90;;;;;;20602485;28;20073;-38
2022/11/15 12:51:19;;;;;;;2.13;0.28;;;14.30;99.90;;;;;;20629130;28;20070;-38
2022/11/15 13:01:33;;;;;;;2.92;1.00;;;14.40;99.90;;;;;;20601819;28;20585;-37
2022/11/15 13:11:48;;;;;;;2.17;0.50;;;14.50;99.90;;;;;;20630851;28;20112;-37
2022/11/15 13:32:13;;;;;;;1.50;0.65;;;13.40;99.90;;;;;;20625956;28;20085;-38
2022/11/15 13:42:17;;;;;;;1.17;0.30;;;13.30;99.90;;;;;;20604560;28;20644;-38
2022/11/15 13:52:18;;;;;;;1.95;0.55;;;13.10;99.90;;;;;;20604040;28;20271;-38
2022/11/15 14:02:28;;;;;;;0.57;0.28;;;12.90;99.90;;;;;;20611147;28;20088;-38
2022/11/15 14:12:32;;;;;;;1.40;0.70;;;12.80;99.90;;;;;;20615582;28;20042;-37
2022/11/15 14:22:33;;;;;;;0.57;0.32;;;12.70;99.90;;;;;;20608952;28;20030;-38
2022/11/15 14:32:44;;;;;;;2.60;0.60;;;12.60;99.90;;;;;;20623081;28;20058;-38
2022/11/15 14:42:47;;;;;;;2.97;0.50;;;12.50;99.90;;;;;;20618499;28;20828;-38
2022/11/15 14:52:49;;;;;;;2.90;0.75;;;12.50;99.90;;;;;;20615927;28;20054;-38
2022/11/15 15:02:53;;;;;;;2.88;0.50;;;12.30;99.90;;;;;;20612068;28;20069;-38
2022/11/15 15:12:54;;;;;;;0.98;0.30;;;12.30;99.90;;;;;;20603772;28;20572;-38
2022/11/15 15:22:55;;;;;;;3.63;0.98;;;12.30;99.90;;;;;;20622919;28;20402;-38
2022/11/15 15:32:56;;;;;;;1.08;0.30;;;12.30;99.90;;;;;;20621097;28;20597;-38
2022/11/15 15:42:57;;;;;;;1.92;1.08;;;12.30;99.90;;;;;;20617951;28;20100;-37
2022/11/15 15:53:00;;;;;;;2.55;0.60;;;12.30;99.90;;;;;;20618518;28;20050;-38
2022/11/15 16:03:01;;;;;;;0.88;0.50;;;12.30;99.90;;;;;;20623430;28;20045;-38
2022/11/15 16:13:02;;;;;;;1.33;0.50;;;12.30;99.90;;;;;;20642431;28;20469;-38
2022/11/15 16:23:07;;;;;;;1.52;0.68;;;12.40;99.90;;;;;;20639254;28;20500;-38
2022/11/15 16:33:08;;;;;;;2.00;0.30;;;12.50;99.90;;;;;;20625430;28;20069;-38
2022/11/15 16:43:09;;;;;;;3.08;1.35;;;12.50;99.90;;;;;;20626292;28;20085;-38
2022/11/15 16:53:10;;;;;;;2.33;0.80;;;12.30;99.90;;;;;;20620006;28;20078;-38
2022/11/15 17:03:11;;;;;;;1.73;0.43;;;12.00;99.90;;;;;;20626498;28;20330;-37
2022/11/15 17:13:13;;;;;;;2.30;1.27;;;11.70;99.90;;;;;;20630782;28;20050;-37
2022/11/15 17:23:14;;;;;;;3.90;1.02;;;11.10;99.90;;;;;;20651441;28;20101;-38
2022/11/15 17:33:15;;;;;;;1.25;0.60;;;10.90;99.90;;;;;;20611551;28;20172;-38
2022/11/15 17:43:16;;;;;;;2.03;0.82;;;10.80;99.90;;;;;;20611745;28;20050;-38
2022/11/15 17:53:17;;;;;;;1.77;0.75;;;10.60;99.90;;;;;;20605192;28;21823;-38
2022/11/15 18:03:18;;;;;;;9.23;1.92;;;10.50;99.90;;;;;;20598242;28;20041;-39
2022/11/15 18:13:19;;;;;;;2.20;1.30;;;10.60;99.90;;;;;;20596137;28;20173;-39
2022/11/15 18:23:19;;;;;;;3.10;1.17;;;10.60;99.90;;;;;;20604379;28;20451;-39
2022/11/15 18:33:20;;;;;;;7.85;1.75;;;10.60;99.90;;;;;;20600175;28;20793;-39
2022/11/15 18:43:21;;;;;;;2.42;1.00;;;10.60;99.90;;;;;;20599769;28;21067;-39
2022/11/15 18:53:22;;;;;;;4.50;2.15;;;10.70;99.90;;;;;;20607539;28;20137;-39
2022/11/15 19:03:24;;;;;;;2.83;1.50;;;10.70;99.90;;;;;;20607137;28;20045;-39
2022/11/15 19:13:24;;;;;;;5.45;1.98;;;10.80;99.90;;;;;;20602064;28;20086;-39
2022/11/15 19:23:26;;;;;;;2.30;1.63;;;10.90;99.90;;;;;;20597742;28;20035;-39
2022/11/15 19:33:27;;;;;;;4.40;2.25;;;11.00;99.90;;;;;;20603127;28;20213;-39
2022/11/15 19:43:28;;;;;;;5.38;2.67;;;11.10;99.90;;;;;;20601314;28;20517;-38
2022/11/15 19:53:30;;;;;;;5.47;2.22;;;11.10;99.90;;;;;;20595185;28;20125;-38
2022/11/15 20:03:32;;;;;;;17.77;3.78;;;11.10;99.90;;;;;;20606045;28;20116;-38
2022/11/15 20:13:33;;;;;;;10.63;4.18;;;11.10;99.90;;;;;;20603349;28;20084;-39
2022/11/15 20:23:34;;;;;;;4.78;2.58;;;11.20;99.90;;;;;;20593657;28;20129;-38
2022/11/15 20:33:35;;;;;;;4.97;2.83;;;11.20;99.90;;;;;;20609952;28;20054;-38
2022/11/15 20:43:36;;;;;;;5.70;3.13;;;11.20;99.90;;;;;;20593562;28;20129;-39
2022/11/15 20:53:37;;;;;;;7.07;4.35;;;11.30;99.90;;;;;;20608945;28;20199;-38
2022/11/15 21:03:38;;;;;;;12.25;4.03;;;11.30;99.90;;;;;;20627679;28;20096;-38
2022/11/15 21:13:39;;;;;;;6.47;3.42;;;11.40;99.90;;;;;;20637317;28;20085;-39
2022/11/15 21:23:40;;;;;;;5.35;3.05;;;11.40;99.90;;;;;;20607103;28;20559;-39
2022/11/15 21:33:41;;;;;;;5.65;3.28;;;11.50;99.90;;;;;;20614216;28;20457;-38
2022/11/15 21:43:42;;;;;;;5.53;2.75;;;11.50;99.90;;;;;;20640283;28;20406;-38
2022/11/15 21:53:43;;;;;;;4.32;2.63;;;11.60;99.90;;;;;;20656372;28;20669;-38
2022/11/15 22:03:45;;;;;;;4.80;2.58;;;11.50;99.90;;;;;;20652355;28;20041;-38
2022/11/15 22:13:46;;;;;;;11.07;4.50;;;11.60;99.90;;;;;;20639533;28;20552;-38
2022/11/15 22:23:48;;;;;;;5.78;2.55;;;11.60;99.90;;;;;;20641248;28;20049;-38
2022/11/15 22:33:49;;;;;;;6.85;3.80;;;11.60;99.90;;;;;;20647859;28;20073;-38
2022/11/15 22:43:50;;;;;;;4.93;3.28;;;11.70;99.90;;;;;;20636070;28;20049;-38
2022/11/15 22:53:51;;;;;;;6.55;3.58;;;11.70;99.90;;;;;;20635509;28;20138;-38
2022/11/15 23:03:52;;;;;;;5.85;3.38;;;11.70;99.90;;;;;;20633742;28;20504;-38
2022/11/15 23:13:53;;;;;;;4.93;3.15;;;11.70;99.90;;;;;;20635459;28;20315;-39
2022/11/15 23:23:54;;;;;;;4.13;2.63;;;11.60;99.90;;;;;;20654765;28;20039;-39
2022/11/15 23:33:58;;;;;;;5.07;3.03;;;11.60;99.90;;;;;;20634772;28;20526;-39
2022/11/15 23:43:59;;;;;;;5.88;3.22;;;11.60;99.90;;;;;;20625104;28;20050;-40
2022/11/15 23:54:00;;;;;;;4.70;2.92;;;11.60;99.90;;;;;;20635272;28;20105;-40
